Terminal Aerodrome Forecast
Issued by NWS Cleveland, OH

Home | Current Version | Previous Version | Graphics & Text | Print | Product List | Glossary Off
Versions: 1 2 3 4 5 6 7 8 9 10 11 12 13 14 15 16 17 18 19 20 21 22 23

000
FTUS41 KCLE 262324
TAFCAK
TAF
KCAK 262324Z 2700/2724 33005KT P6SM BKN120
     FM270500 12005KT 6SM BR SCT025 OVC045
     FM270700 12005KT 5SM -SHRA BR OVC025
     FM270900 10005KT 3SM BR OVC010
      TEMPO 2709/2713 1SM BR OVC003
     FM271400 05005KT P6SM BKN015
     FM271800 03005KT P6SM BKN035
     FM272100 01005KT P6SM SCT040 BKN120=

USA.gov is the U.S. government's official web portal to all federal, state and local government web resources and services.